Архив погоды в Арке

Метеограмма Арка
Понедельник, 17 Июня
Время местн. Темп Ветер Видим Явления Облачность нижн/средн/верх Атм. давл. Влжн Точка росы ВНГО R Сост. почвы Tg s
Напр Скр Прв ур.ст ур.м изм
10:00 +7° Ю 1 - 4 км слабый ливневый дождь облачно 743 761 +1 92% +5.8° 1 км - - - -
07:00 +6.9° Ю 2 - 10 км слабый ливневый дождь облачно 742 760 +0.7 91% +5.6° 1.5 км 3 Сырая (есть малые или большие лужи) +8° -
04:00 +6.8° штиль 0 - 10 км слабый ливневый дождь облачно 741 759 +0.2 97% +6.3° 1.5 км - - - -
01:00 +7.5° штиль 0 - 10 км слабый ливневый дождь облачно 741 759 -1 96% +6.9° 1.5 км - - - -
Воскресенье, 16 Июня
Время местн. Темп Ветер Видим Явления Облачность нижн/средн/верх Атм. давл. Влжн Точка росы ВНГО R Сост. почвы Tg s
Напр Скр Прв ур.ст ур.м изм
22:00 +8.5° штиль 0 - более 50 км - облачно 742 760 +0.4 87% +6.5° 1.5 км - - - -
19:00 +11.4° Ю 2 - 50 км - преимущественно облачно 742 759 -0.2 69% +5.9° 1.5 км 0 - - -
16:00 +13.1° Ю 3 - более 50 км - облачно 742 759 -0.6 64% +6.5° 1.5 км - - - -
13:00 +17.4° С 3 - 50 км - преимущественно облачно 742 760 -1.4 36% +2° 1.5 км - - - -
10:00 +15.7° С 1 - более 50 км - преимущественно облачно 744 761 -0.5 45% +3.9° 1.5 км - - - -
07:00 +5.3° З 3 - 50 км - облачно 745 764 -0.5 80% +2.2° 600 м 0 Влажная (без луж) - -
04:00 +3.8° З,С-З 2 - более 50 км - облачно 746 764 -0.9 91% +2.5° 600 м - - - -
01:00 +4.4° Ю-З 1 - более 50 км - облачно 747 765 -0.2 90% +2.9° 600 м - - - -
Суббота, 15 Июня
Время местн. Темп Ветер Видим Явления Облачность нижн/средн/верх Атм. давл. Влжн Точка росы ВНГО R Сост. почвы Tg s
Напр Скр Прв ур.ст ур.м изм
22:00 +5.4° Ю 2 - 50 км - переменная облачность 747 765 +1 84% +3° 1.5 км - - - -
19:00 +11° Ю 4 - 50 км - переменная облачность 746 764 0 57% +2.8° - 0 - - -
16:00 +12.8° Ю 4 - более 50 км - переменная облачность 746 764 -0.9 52% +3.1° 1.5 км - - - -
13:00 +10.4° Ю-В 4 - 50 км - переменная облачность 747 765 -0.7 62% +3.5° 1.5 км - - - -
10:00 +6.4° Ю-З 1 - 50 км - облачно 748 766 +0.2 74% +2.2° 600 м - - - -
07:00 +4.8° Ю 1 - более 50 км - облачно 747 766 +0.5 87% +2.9° 600 м 0 Влажная (без луж) +6° -
04:00 +4.4° Ю,Ю-В 1 - 50 км - облачно 747 765 +0.5 87% +2.5° 600 м - - - -
01:00 +4.7° Ю 2 - 50 км - преимущественно облачно 747 765 +0.8 86% +2.6° 1 км - - - -
Пятница, 14 Июня
Время местн. Темп Ветер Видим Явления Облачность нижн/средн/верх Атм. давл. Влжн Точка росы ВНГО R Сост. почвы Tg s
Напр Скр Прв ур.ст ур.м изм
22:00 +6.8° Ю 4 10 более 50 км - преимущественно облачно 746 764 +1.1 78% +3.2° 1.5 км - - - -
19:00 +11.5° Ю 4 - 50 км - облачно с прояснениями 745 763 +0.2 63% +4.6° 1.5 км 0 - - -
16:00 +13.2° Ю,Ю-В 4 - 50 км - переменная облачность 745 762 -1.2 58% +5.2° 1.5 км - - - -
13:00 +11.2° Ю 3 - более 50 км - облачно с прояснениями 746 764 -0.8 66% +5.2° 600 м - - - -
10:00 +7° Ю,Ю-В 2 - более 50 км - облачно 747 765 +0.1 81% +4° 600 м - - - -
07:00 +6.2° Ю 1 - 50 км - облачно 747 765 0 87% +4.2° 600 м 0 Влажная (без луж) - -